Terminal Aerodrome Forecast
Issued by NWS Charleston, WV

Current Version | Previous Version | Graphics & Text | Print | Product List | Glossary On
Versions: 1 2 3 4 5 6 7 8 9 10 11 12 13 14 15 16 17 18 19 20 21 22 23 24 25
669
FTUS41 KRLX 231726
TAFPKB
TAF
KPKB 231726Z 2318/2418 24004KT P6SM SCT020
     FM240900 00000KT 2SM BR SCT001
     FM241200 VRB02KT 4SM BR SCT001
     FM241300 VRB02KT P6SM SCT035=

USA.gov is the U.S. government's official web portal to all federal, state and local government web resources and services.